Time;durP1;ratioP1;P1;durP2;ratioP2;P2;SDS_P1;SDS_P2;PMS_P1;PMS_P2;Temp;Humidity;BMP_temperature;BMP_pressure;BME280_temperature;BME280_humidity;BME280_pressure;Samples;Min_cycle;Max_cycle;Signal;HPM_P1;HPM_P2
2021/03/17 00:01:33;;;;;;;52.90;24.05;;;;;;;;;;5053012;28;20104;-46
2021/03/17 00:03:59;;;;;;;96.72;43.13;;;;;;;;;;5052885;28;20029;-47
2021/03/17 00:06:25;;;;;;;58.13;28.55;;;;;;;;;;5052841;28;20052;-49
2021/03/17 00:08:51;;;;;;;59.17;26.77;;;;;;;;;;5052519;28;20045;-54
2021/03/17 00:11:17;;;;;;;71.32;33.85;;;;;;;;;;5052567;28;20021;-51
2021/03/17 00:13:43;;;;;;;58.25;27.80;;;;;;;;;;5053034;28;20021;-53
2021/03/17 00:16:09;;;;;;;72.07;35.05;;;;;;;;;;5052820;28;20032;-54
2021/03/17 00:18:35;;;;;;;99.32;48.05;;;;;;;;;;5052944;28;20082;-53
2021/03/17 00:21:01;;;;;;;96.13;46.13;;;;;;;;;;5052471;28;20028;-52
2021/03/17 00:23:28;;;;;;;63.03;30.40;;;;;;;;;;5053216;28;20028;-52
2021/03/17 00:25:54;;;;;;;51.88;26.25;;;;;;;;;;5052356;28;20384;-46
2021/03/17 00:28:20;;;;;;;28.65;15.73;;;;;;;;;;5052866;28;20483;-47
2021/03/17 00:30:46;;;;;;;28.85;15.63;;;;;;;;;;5052528;28;20021;-50
2021/03/17 00:33:12;;;;;;;39.08;21.45;;;;;;;;;;5054679;28;20059;-50
2021/03/17 00:35:39;;;;;;;43.75;20.67;;;;;;;;;;5056205;28;20025;-50
2021/03/17 00:38:05;;;;;;;38.20;18.65;;;;;;;;;;5055866;28;20037;-52
2021/03/17 00:40:31;;;;;;;88.95;42.75;;;;;;;;;;5055928;28;20039;-48
2021/03/17 00:42:57;;;;;;;68.13;33.17;;;;;;;;;;5056305;28;20021;-52
2021/03/17 00:45:23;;;;;;;33.35;17.60;;;;;;;;;;5056042;28;20047;-51
2021/03/17 00:47:49;;;;;;;68.10;32.72;;;;;;;;;;5037849;28;20112;-51
2021/03/17 00:50:16;;;;;;;45.10;22.45;;;;;;;;;;5056030;28;20071;-52
2021/03/17 00:52:42;;;;;;;74.30;31.48;;;;;;;;;;5055679;28;20068;-52
2021/03/17 00:55:08;;;;;;;56.75;26.27;;;;;;;;;;5055766;28;20025;-51
2021/03/17 00:57:34;;;;;;;80.03;37.33;;;;;;;;;;5055576;28;20115;-53
2021/03/17 01:00:00;;;;;;;27.00;15.25;;;;;;;;;;5055699;28;20377;-52
2021/03/17 01:02:26;;;;;;;27.02;14.63;;;;;;;;;;5055658;28;20380;-52
2021/03/17 01:04:52;;;;;;;65.35;30.98;;;;;;;;;;5055648;28;20066;-52
2021/03/17 01:07:19;;;;;;;64.28;30.08;;;;;;;;;;5055102;28;20049;-50
2021/03/17 01:09:45;;;;;;;40.90;18.48;;;;;;;;;;5055225;28;20052;-50
2021/03/17 01:12:11;;;;;;;34.75;17.80;;;;;;;;;;5055215;28;20056;-51
2021/03/17 01:14:37;;;;;;;96.57;45.67;;;;;;;;;;5055308;28;20022;-51
2021/03/17 01:17:04;;;;;;;82.10;38.17;;;;;;;;;;5055210;28;20086;-51
2021/03/17 01:19:30;;;;;;;50.33;23.67;;;;;;;;;;5049199;28;20327;-51
2021/03/17 01:21:56;;;;;;;71.15;34.63;;;;;;;;;;5035215;28;20424;-51
2021/03/17 01:24:22;;;;;;;29.63;14.52;;;;;;;;;;5035283;28;20036;-49
2021/03/17 01:26:49;;;;;;;82.05;38.13;;;;;;;;;;5035033;28;20029;-51
2021/03/17 01:29:15;;;;;;;80.70;37.15;;;;;;;;;;5035342;28;20459;-52
2021/03/17 01:31:41;;;;;;;36.63;18.02;;;;;;;;;;5044521;28;20025;-51
2021/03/17 01:34:07;;;;;;;93.63;41.88;;;;;;;;;;5054856;28;20366;-50
2021/03/17 01:36:33;;;;;;;68.30;33.40;;;;;;;;;;5046972;28;20389;-52
2021/03/17 01:38:59;;;;;;;51.50;24.83;;;;;;;;;;5036065;28;20112;-52
2021/03/17 01:41:25;;;;;;;52.22;25.48;;;;;;;;;;5034758;28;20029;-52
2021/03/17 01:43:52;;;;;;;30.38;15.80;;;;;;;;;;5034859;28;20473;-52
2021/03/17 01:46:20;;;;;;;56.70;27.30;;;;;;;;;;5034794;28;20103;-52
2021/03/17 01:48:46;;;;;;;68.03;31.77;;;;;;;;;;5034725;28;20033;-49
2021/03/17 01:51:12;;;;;;;45.20;23.20;;;;;;;;;;5033001;28;20037;-51
2021/03/17 01:53:38;;;;;;;43.75;21.45;;;;;;;;;;5034662;28;20074;-52
2021/03/17 01:56:05;;;;;;;35.53;18.92;;;;;;;;;;5034510;28;20022;-51
2021/03/17 01:58:31;;;;;;;39.80;21.08;;;;;;;;;;5034631;28;20540;-50
2021/03/17 02:00:57;;;;;;;32.00;16.80;;;;;;;;;;5034772;28;20489;-50
2021/03/17 02:03:23;;;;;;;47.13;22.80;;;;;;;;;;5034554;28;20097;-50
2021/03/17 02:05:52;;;;;;;35.55;17.48;;;;;;;;;;5034422;28;20083;-51
2021/03/17 02:08:19;;;;;;;32.33;14.38;;;;;;;;;;5032898;28;20041;-51
2021/03/17 02:10:47;;;;;;;47.60;23.50;;;;;;;;;;5051514;28;20507;-50
2021/03/17 02:13:22;;;;;;;35.63;17.55;;;;;;;;;;5054260;28;20040;-50
2021/03/17 02:15:48;;;;;;;41.10;18.77;;;;;;;;;;5036322;28;20035;-51
2021/03/17 02:18:33;;;;;;;25.30;12.40;;;;;;;;;;5054356;28;20028;-50
2021/03/17 02:21:02;;;;;;;33.38;16.52;;;;;;;;;;5054106;28;20362;-51
2021/03/17 02:23:33;;;;;;;24.17;12.68;;;;;;;;;;5053976;28;20025;-50
2021/03/17 02:26:02;;;;;;;25.55;14.05;;;;;;;;;;5054061;28;20028;-51
2021/03/17 02:28:31;;;;;;;28.05;14.05;;;;;;;;;;5054114;28;20044;-52
2021/03/17 02:31:16;;;;;;;20.35;10.98;;;;;;;;;;5053863;28;20068;-51
2021/03/17 02:33:48;;;;;;;19.17;9.68;;;;;;;;;;5053921;28;20084;-51
2021/03/17 02:36:16;;;;;;;28.77;13.55;;;;;;;;;;5053762;28;20074;-51
2021/03/17 02:38:44;;;;;;;22.67;12.50;;;;;;;;;;5053652;28;20056;-52
2021/03/17 02:41:10;;;;;;;23.60;11.90;;;;;;;;;;5036107;28;20504;-52
2021/03/17 02:43:40;;;;;;;14.75;8.07;;;;;;;;;;5036365;28;20427;-53
2021/03/17 02:46:07;;;;;;;21.52;11.68;;;;;;;;;;5036257;28;20020;-53
2021/03/17 02:48:39;;;;;;;24.50;11.23;;;;;;;;;;5036248;28;20027;-50
2021/03/17 02:51:08;;;;;;;16.63;9.23;;;;;;;;;;5035989;28;20032;-52
2021/03/17 02:53:35;;;;;;;10.63;6.57;;;;;;;;;;5053569;28;20044;-53
2021/03/17 02:56:01;;;;;;;19.80;9.90;;;;;;;;;;5034918;28;20035;-49
2021/03/17 02:58:27;;;;;;;25.23;11.10;;;;;;;;;;5053634;28;20039;-51
2021/03/17 03:00:53;;;;;;;13.40;8.07;;;;;;;;;;5035354;28;20083;-50
2021/03/17 03:03:21;;;;;;;17.48;9.95;;;;;;;;;;5035815;28;20021;-50
2021/03/17 03:05:48;;;;;;;16.13;8.00;;;;;;;;;;5036174;28;20508;-49
2021/03/17 03:08:14;;;;;;;20.00;9.57;;;;;;;;;;5021499;28;20057;-51
2021/03/17 03:10:40;;;;;;;15.13;8.13;;;;;;;;;;5013630;28;20032;-49
2021/03/17 03:13:06;;;;;;;18.02;9.15;;;;;;;;;;5012514;28;20029;-51
2021/03/17 03:15:32;;;;;;;12.45;7.55;;;;;;;;;;5013828;28;20474;-51
2021/03/17 03:17:59;;;;;;;12.40;7.38;;;;;;;;;;5013520;28;20025;-50
2021/03/17 03:20:25;;;;;;;16.35;8.60;;;;;;;;;;5012407;28;20018;-49
2021/03/17 03:22:51;;;;;;;12.07;8.02;;;;;;;;;;5013775;28;20433;-50
2021/03/17 03:25:17;;;;;;;10.85;7.10;;;;;;;;;;5013716;28;20033;-51
2021/03/17 03:27:44;;;;;;;9.07;6.05;;;;;;;;;;5013496;28;20436;-51
2021/03/17 03:30:21;;;;;;;12.18;7.15;;;;;;;;;;5013417;28;20402;-50
2021/03/17 03:32:47;;;;;;;10.75;6.00;;;;;;;;;;5013314;28;20034;-51
2021/03/17 03:35:14;;;;;;;8.85;5.70;;;;;;;;;;5012215;28;20022;-50
2021/03/17 03:37:40;;;;;;;14.18;7.53;;;;;;;;;;5013210;28;20105;-51
2021/03/17 03:40:13;;;;;;;10.13;6.72;;;;;;;;;;5013313;28;20537;-51
2021/03/17 03:42:39;;;;;;;11.23;6.30;;;;;;;;;;5013781;28;20077;-52
2021/03/17 03:45:05;;;;;;;8.32;5.63;;;;;;;;;;5013758;28;20425;-51
2021/03/17 03:47:31;;;;;;;10.98;7.05;;;;;;;;;;5013361;28;20159;-52
2021/03/17 03:49:59;;;;;;;15.73;6.90;;;;;;;;;;5012323;28;20512;-51
2021/03/17 03:52:25;;;;;;;8.63;5.63;;;;;;;;;;5011948;28;20481;-51
2021/03/17 03:54:53;;;;;;;12.90;6.90;;;;;;;;;;5011776;28;20088;-51
2021/03/17 03:57:22;;;;;;;8.60;6.10;;;;;;;;;;5013356;28;20029;-50
2021/03/17 03:59:49;;;;;;;7.63;5.25;;;;;;;;;;5012163;28;20049;-48
2021/03/17 04:02:23;;;;;;;11.90;5.68;;;;;;;;;;5013115;28;20026;-50
2021/03/17 04:04:49;;;;;;;9.68;6.13;;;;;;;;;;5011634;28;20117;-50
2021/03/17 04:07:15;;;;;;;9.80;6.50;;;;;;;;;;5018918;28;20539;-50
2021/03/17 04:09:47;;;;;;;11.18;6.63;;;;;;;;;;5038610;28;20387;-49
2021/03/17 04:12:14;;;;;;;10.60;7.03;;;;;;;;;;5038894;28;20091;-49
2021/03/17 04:14:40;;;;;;;9.77;6.45;;;;;;;;;;5038756;28;20036;-49
2021/03/17 04:17:09;;;;;;;12.02;6.97;;;;;;;;;;5056726;28;20033;-50
2021/03/17 04:19:36;;;;;;;11.18;6.80;;;;;;;;;;5056419;28;20424;-48
2021/03/17 04:22:04;;;;;;;12.70;7.57;;;;;;;;;;5038812;28;20025;-50
2021/03/17 04:24:30;;;;;;;12.13;8.63;;;;;;;;;;5056324;28;20040;-50
2021/03/17 04:26:56;;;;;;;15.68;11.35;;;;;;;;;;5056405;28;20523;-50
2021/03/17 04:29:22;;;;;;;16.70;10.77;;;;;;;;;;5038494;28;20056;-50
2021/03/17 04:31:50;;;;;;;15.88;9.57;;;;;;;;;;5056094;28;20028;-50
2021/03/17 04:34:16;;;;;;;13.27;8.55;;;;;;;;;;5038605;28;20032;-49
2021/03/17 04:36:42;;;;;;;13.43;8.98;;;;;;;;;;5056159;28;20017;-50
2021/03/17 04:39:08;;;;;;;15.40;9.60;;;;;;;;;;5056010;28;20033;-47
2021/03/17 04:41:34;;;;;;;15.25;9.98;;;;;;;;;;5038445;28;20033;-50
2021/03/17 04:44:01;;;;;;;14.88;10.00;;;;;;;;;;5021240;28;20370;-50
2021/03/17 04:46:27;;;;;;;17.50;11.07;;;;;;;;;;5037988;28;20057;-50
2021/03/17 04:48:53;;;;;;;23.17;13.85;;;;;;;;;;5038210;28;20017;-51
2021/03/17 04:51:19;;;;;;;25.77;12.80;;;;;;;;;;5055868;28;20103;-49
2021/03/17 04:53:45;;;;;;;27.05;12.25;;;;;;;;;;5055824;28;20496;-50
2021/03/17 04:56:11;;;;;;;23.00;10.90;;;;;;;;;;5038167;28;20538;-50
2021/03/17 04:58:37;;;;;;;22.65;10.00;;;;;;;;;;5038006;28;20025;-50
2021/03/17 05:01:07;;;;;;;27.27;11.77;;;;;;;;;;5037403;28;20162;-50
2021/03/17 05:03:33;;;;;;;23.42;11.40;;;;;;;;;;5055797;28;20029;-50
2021/03/17 05:05:59;;;;;;;20.15;11.35;;;;;;;;;;5056137;28;20022;-50
2021/03/17 05:08:25;;;;;;;20.75;10.32;;;;;;;;;;5037632;28;20493;-50
2021/03/17 05:10:54;;;;;;;17.60;10.02;;;;;;;;;;5037796;28;20021;-50
2021/03/17 05:13:22;;;;;;;14.00;9.05;;;;;;;;;;5037841;28;20071;-51
2021/03/17 05:15:48;;;;;;;15.30;9.25;;;;;;;;;;5055385;28;20021;-51
2021/03/17 05:18:18;;;;;;;13.07;8.63;;;;;;;;;;5037473;28;20436;-50
2021/03/17 05:20:44;;;;;;;14.38;8.95;;;;;;;;;;5055529;28;20025;-49
2021/03/17 05:23:11;;;;;;;14.02;8.73;;;;;;;;;;5055262;28;20107;-50
2021/03/17 05:25:37;;;;;;;15.38;8.77;;;;;;;;;;5037750;28;20029;-50
2021/03/17 05:28:04;;;;;;;13.63;8.63;;;;;;;;;;5055202;28;20021;-50
2021/03/17 05:30:31;;;;;;;11.98;8.38;;;;;;;;;;5055003;28;20029;-49
2021/03/17 05:32:57;;;;;;;15.52;9.80;;;;;;;;;;5037439;28;20025;-50
2021/03/17 05:35:23;;;;;;;18.17;9.57;;;;;;;;;;5055291;28;20104;-53
2021/03/17 05:37:49;;;;;;;15.63;9.07;;;;;;;;;;5054874;28;20070;-56
2021/03/17 05:40:16;;;;;;;14.77;8.98;;;;;;;;;;5054954;28;20029;-50
2021/03/17 05:42:42;;;;;;;16.75;10.00;;;;;;;;;;5055018;28;20188;-50
2021/03/17 05:45:10;;;;;;;19.45;9.63;;;;;;;;;;5054945;28;20033;-50
2021/03/17 05:47:36;;;;;;;18.42;9.23;;;;;;;;;;5037203;28;20056;-51
2021/03/17 05:50:03;;;;;;;15.55;9.82;;;;;;;;;;5054752;28;20032;-51
2021/03/17 05:52:29;;;;;;;18.20;10.60;;;;;;;;;;5054536;28;20118;-47
2021/03/17 05:54:55;;;;;;;40.75;21.30;;;;;;;;;;5054750;28;20106;-49
2021/03/17 05:57:21;;;;;;;39.05;21.50;;;;;;;;;;5036465;28;20500;-49
2021/03/17 05:59:47;;;;;;;40.80;23.75;;;;;;;;;;5036772;28;20391;-51
2021/03/17 06:02:13;;;;;;;29.67;17.80;;;;;;;;;;5054671;28;20028;-47
2021/03/17 06:04:39;;;;;;;31.30;16.00;;;;;;;;;;5037124;28;20025;-50
2021/03/17 06:07:09;;;;;;;20.05;12.82;;;;;;;;;;5053948;28;20021;-50
2021/03/17 06:09:38;;;;;;;21.83;12.10;;;;;;;;;;5054357;28;20518;-50
2021/03/17 06:12:07;;;;;;;22.55;12.52;;;;;;;;;;5036584;28;20045;-53
2021/03/17 06:14:33;;;;;;;20.55;10.80;;;;;;;;;;5054092;28;20033;-48
2021/03/17 06:17:03;;;;;;;19.45;10.85;;;;;;;;;;5054091;28;20056;-50
2021/03/17 06:19:32;;;;;;;18.15;10.10;;;;;;;;;;5054325;28;20048;-50
2021/03/17 06:22:01;;;;;;;21.42;11.88;;;;;;;;;;5053984;28;20052;-51
2021/03/17 06:24:28;;;;;;;24.55;12.32;;;;;;;;;;5053980;28;20029;-50
2021/03/17 06:26:54;;;;;;;16.92;9.88;;;;;;;;;;5036341;28;20029;-48
2021/03/17 06:29:20;;;;;;;14.57;9.30;;;;;;;;;;5035986;28;20028;-51
2021/03/17 06:31:47;;;;;;;14.88;9.27;;;;;;;;;;5035701;28;20063;-51
2021/03/17 06:34:13;;;;;;;15.35;9.32;;;;;;;;;;5053672;28;20040;-51
2021/03/17 06:36:56;;;;;;;14.93;8.88;;;;;;;;;;5053965;28;20021;-51
2021/03/17 06:39:25;;;;;;;15.57;9.07;;;;;;;;;;5053774;28;20037;-50
2021/03/17 06:41:52;;;;;;;13.70;8.57;;;;;;;;;;5053668;28;20409;-50
2021/03/17 06:44:21;;;;;;;15.85;8.65;;;;;;;;;;5053774;28;20104;-50
2021/03/17 06:47:06;;;;;;;13.95;8.75;;;;;;;;;;5053734;28;20025;-51
2021/03/17 06:49:39;;;;;;;18.65;10.00;;;;;;;;;;5053583;28;20381;-50
2021/03/17 06:52:31;;;;;;;20.17;10.45;;;;;;;;;;5053470;28;20148;-50
2021/03/17 06:55:08;;;;;;;19.58;9.77;;;;;;;;;;5049075;28;20139;-50
2021/03/17 06:57:34;;;;;;;15.32;9.90;;;;;;;;;;5053588;28;20029;-51
2021/03/17 07:00:19;;;;;;;19.40;10.63;;;;;;;;;;5053695;28;20029;-50
2021/03/17 07:02:57;;;;;;;18.85;11.50;;;;;;;;;;5053172;28;20029;-51
2021/03/17 07:05:38;;;;;;;22.90;11.80;;;;;;;;;;5053544;28;20029;-51
2021/03/17 07:08:05;;;;;;;26.30;14.60;;;;;;;;;;5022614;28;20041;-50
2021/03/17 07:10:35;;;;;;;27.05;14.05;;;;;;;;;;5013901;28;20026;-52
2021/03/17 07:13:01;;;;;;;23.55;13.43;;;;;;;;;;5013453;28;20386;-52
2021/03/17 07:15:27;;;;;;;28.25;16.10;;;;;;;;;;5013749;28;20374;-52
2021/03/17 07:17:56;;;;;;;29.48;18.65;;;;;;;;;;5013674;28;20032;-53
2021/03/17 07:20:42;;;;;;;22.13;13.05;;;;;;;;;;5013746;28;20049;-53
2021/03/17 07:23:27;;;;;;;24.98;15.57;;;;;;;;;;5013610;28;20030;-53
2021/03/17 07:26:12;;;;;;;33.55;17.45;;;;;;;;;;5013397;28;20106;-48
2021/03/17 07:28:50;;;;;;;20.77;11.52;;;;;;;;;;5013563;28;20504;-51
2021/03/17 07:31:37;;;;;;;32.80;19.23;;;;;;;;;;5013659;28;20065;-52
2021/03/17 07:34:16;;;;;;;38.05;20.83;;;;;;;;;;5013220;28;20073;-51
2021/03/17 07:36:43;;;;;;;43.28;22.17;;;;;;;;;;5013628;28;20030;-54
2021/03/17 07:39:13;;;;;;;34.92;19.13;;;;;;;;;;5013182;28;20037;-54
2021/03/17 07:41:39;;;;;;;33.55;16.65;;;;;;;;;;5014724;28;20477;-54
2021/03/17 07:44:06;;;;;;;28.40;15.27;;;;;;;;;;5017300;28;20033;-54
2021/03/17 07:46:35;;;;;;;50.95;26.35;;;;;;;;;;5017294;28;20382;-52
2021/03/17 07:49:02;;;;;;;61.63;29.00;;;;;;;;;;5017147;28;20097;-54
2021/03/17 07:51:30;;;;;;;36.17;20.92;;;;;;;;;;5017161;28;20014;-54
2021/03/17 07:53:56;;;;;;;33.20;18.52;;;;;;;;;;5016051;28;20045;-54
2021/03/17 07:56:23;;;;;;;20.60;13.13;;;;;;;;;;5017259;28;20045;-55
2021/03/17 07:58:55;;;;;;;30.13;16.98;;;;;;;;;;5017289;28;20072;-53
2021/03/17 08:01:21;;;;;;;;;;;;;;;;;;5017502;28;20025;-49
2021/03/17 08:03:47;;;;;;;69.18;32.03;;;;;;;;;;5017124;28;19909;-55
2021/03/17 08:06:19;;;;;;;76.10;38.50;;;;;;;;;;5016672;28;20559;-48
2021/03/17 08:08:45;;;;;;;139.90;61.75;;;;;;;;;;5045948;28;20078;-56
2021/03/17 08:11:12;;;;;;;134.18;64.38;;;;;;;;;;5056637;28;20022;-60
2021/03/17 08:13:38;;;;;;;58.55;30.60;;;;;;;;;;5038587;28;20033;-57
2021/03/17 08:16:04;;;;;;;76.53;37.72;;;;;;;;;;5056397;28;20029;-58
2021/03/17 08:18:31;;;;;;;64.93;34.13;;;;;;;;;;5038650;28;20032;-47
2021/03/17 08:20:57;;;;;;;82.05;42.38;;;;;;;;;;5056286;28;20531;-56
2021/03/17 08:23:44;;;;;;;72.43;37.30;;;;;;;;;;5056331;28;20025;-44
2021/03/17 08:26:10;;;;;;;71.35;36.33;;;;;;;;;;5056043;28;20025;-51
2021/03/17 08:28:55;;;;;;;81.43;40.17;;;;;;;;;;5056252;28;20408;-55
2021/03/17 08:31:36;;;;;;;68.60;36.00;;;;;;;;;;5056335;28;20382;-58
2021/03/17 08:34:21;;;;;;;45.55;24.52;;;;;;;;;;5055911;28;20043;-56
2021/03/17 08:37:05;;;;;;;49.53;24.67;;;;;;;;;;5056073;28;20029;-58
2021/03/17 08:39:35;;;;;;;103.85;52.10;;;;;;;;;;5038068;28;20477;-61
2021/03/17 08:42:02;;;;;;;38.88;21.63;;;;;;;;;;5056126;28;20021;-55
2021/03/17 08:44:39;;;;;;;55.30;28.10;;;;;;;;;;5055979;28;20025;-54
2021/03/17 08:47:12;;;;;;;63.22;32.00;;;;;;;;;;5056021;28;20025;-52
2021/03/17 08:49:39;;;;;;;53.05;25.05;;;;;;;;;;5055933;28;20028;-54
2021/03/17 08:52:05;;;;;;;52.45;26.55;;;;;;;;;;5055711;28;20032;-50
2021/03/17 08:54:31;;;;;;;132.10;72.28;;;;;;;;;;5054721;28;20056;-44
2021/03/17 08:57:01;;;;;;;158.25;81.90;;;;;;;;;;5055785;28;20025;-49
2021/03/17 08:59:59;;;;;;;57.85;31.70;;;;;;;;;;5055678;28;20551;-59
2021/03/17 09:02:25;;;;;;;179.35;90.07;;;;;;;;;;4955201;29;20103;-45
2021/03/17 09:04:52;;;;;;;82.57;41.95;;;;;;;;;;4955735;29;20039;-50
2021/03/17 09:07:18;;;;;;;77.20;41.15;;;;;;;;;;4955321;29;20077;-46
2021/03/17 09:09:51;;;;;;;124.07;62.50;;;;;;;;;;4955385;29;20069;-44
2021/03/17 09:12:18;;;;;;;116.63;61.30;;;;;;;;;;4955217;29;20111;-45
2021/03/17 09:14:44;;;;;;;81.88;39.80;;;;;;;;;;4955244;28;20126;-51
2021/03/17 09:17:12;;;;;;;136.68;64.00;;;;;;;;;;4955247;29;20027;-55
2021/03/17 09:19:56;;;;;;;72.45;38.45;;;;;;;;;;4955295;29;20179;-45
2021/03/17 09:22:41;;;;;;;55.47;25.63;;;;;;;;;;4955234;29;20456;-56
2021/03/17 09:25:16;;;;;;;216.85;80.55;;;;;;;;;;4955065;29;20599;-56
2021/03/17 09:27:52;;;;;;;54.97;27.42;;;;;;;;;;4955171;29;20042;-46
2021/03/17 09:30:18;;;;;;;48.13;19.95;;;;;;;;;;4955234;29;20032;-54
2021/03/17 09:32:45;;;;;;;27.75;18.35;;;;;;;;;;4955078;29;20047;-58
2021/03/17 09:35:11;;;;;;;36.90;16.00;;;;;;;;;;4955460;29;20533;-56
2021/03/17 09:37:37;;;;;;;18.27;13.90;;;;;;;;;;4954939;29;20503;-57
2021/03/17 09:40:04;;;;;;;22.70;13.27;;;;;;;;;;5038138;28;20094;-55
2021/03/17 09:42:34;;;;;;;21.38;14.38;;;;;;;;;;5055406;28;20025;-52
2021/03/17 09:45:02;;;;;;;36.80;20.00;;;;;;;;;;5054716;28;20025;-58
2021/03/17 09:47:31;;;;;;;26.95;12.98;;;;;;;;;;5054882;28;20039;-56
2021/03/17 09:49:57;;;;;;;17.83;12.15;;;;;;;;;;5054672;28;20446;-54
2021/03/17 09:52:24;;;;;;;20.77;13.02;;;;;;;;;;5036663;28;20052;-54
2021/03/17 09:54:50;;;;;;;20.13;12.45;;;;;;;;;;5054476;28;20037;-55
2021/03/17 09:57:16;;;;;;;23.48;12.63;;;;;;;;;;5054589;28;20063;-56
2021/03/17 09:59:48;;;;;;;18.48;12.75;;;;;;;;;;5054509;28;20036;-57
2021/03/17 10:02:16;;;;;;;21.60;12.82;;;;;;;;;;5054464;28;20025;-54
2021/03/17 10:04:43;;;;;;;23.63;12.65;;;;;;;;;;5054506;28;20032;-57
2021/03/17 10:07:13;;;;;;;39.28;22.00;;;;;;;;;;5054002;28;20078;-55
2021/03/17 10:09:39;;;;;;;29.52;16.88;;;;;;;;;;5054217;28;20033;-57
2021/03/17 10:12:13;;;;;;;44.13;21.92;;;;;;;;;;5054379;28;20043;-57
2021/03/17 10:14:52;;;;;;;46.63;24.98;;;;;;;;;;5054107;28;20032;-55
2021/03/17 10:17:19;;;;;;;50.53;28.08;;;;;;;;;;5054198;28;20032;-53
2021/03/17 10:19:51;;;;;;;67.53;36.53;;;;;;;;;;5054221;28;20032;-52
2021/03/17 10:22:18;;;;;;;100.25;53.55;;;;;;;;;;5053997;28;20111;-52
2021/03/17 10:24:45;;;;;;;84.43;43.88;;;;;;;;;;5053601;28;20087;-51
2021/03/17 10:27:12;;;;;;;81.15;41.28;;;;;;;;;;5054019;28;20021;-54
2021/03/17 10:29:39;;;;;;;184.70;91.72;;;;;;;;;;5036343;28;20021;-53
2021/03/17 10:32:05;;;;;;;68.30;35.67;;;;;;;;;;5054134;28;20114;-49
2021/03/17 10:34:31;;;;;;;74.93;39.95;;;;;;;;;;5053608;28;20032;-55
2021/03/17 10:36:57;;;;;;;79.40;42.75;;;;;;;;;;5053615;28;20025;-45
2021/03/17 10:39:27;;;;;;;71.72;38.95;;;;;;;;;;5053579;28;20025;-56
2021/03/17 10:41:53;;;;;;;113.43;56.88;;;;;;;;;;5053634;28;20067;-45
2021/03/17 10:44:20;;;;;;;70.25;37.63;;;;;;;;;;5053650;28;20017;-53
2021/03/17 10:46:59;;;;;;;66.70;37.38;;;;;;;;;;5053718;28;20477;-46
2021/03/17 10:49:25;;;;;;;80.47;44.83;;;;;;;;;;5053461;28;20021;-50
2021/03/17 10:51:51;;;;;;;78.00;38.00;;;;;;;;;;5054124;28;20025;-54
2021/03/17 10:54:26;;;;;;;108.65;53.30;;;;;;;;;;5053835;28;20068;-55
2021/03/17 10:56:52;;;;;;;52.72;29.15;;;;;;;;;;5053582;28;20083;-57
2021/03/17 10:59:25;;;;;;;93.43;51.10;;;;;;;;;;5035402;28;20458;-56
2021/03/17 11:02:11;;;;;;;43.28;25.20;;;;;;;;;;5053337;28;20362;-56
2021/03/17 11:04:37;;;;;;;77.95;41.70;;;;;;;;;;5053336;28;20020;-46
2021/03/17 11:07:04;;;;;;;119.22;65.55;;;;;;;;;;5053166;28;20385;-51
2021/03/17 11:09:38;;;;;;;150.80;85.78;;;;;;;;;;5053245;28;20029;-55
2021/03/17 11:12:11;;;;;;;162.52;90.43;;;;;;;;;;5053201;28;20464;-65
2021/03/17 11:14:37;;;;;;;67.03;38.65;;;;;;;;;;5053540;28;20037;-58
2021/03/17 11:17:04;;;;;;;81.43;42.08;;;;;;;;;;5052922;28;20025;-58
2021/03/17 11:19:30;;;;;;;64.60;36.35;;;;;;;;;;5053093;28;20052;-57
2021/03/17 11:21:56;;;;;;;178.60;104.35;;;;;;;;;;5053324;28;20372;-58
2021/03/17 11:24:22;;;;;;;60.97;34.65;;;;;;;;;;5053043;28;20099;-58
2021/03/17 11:26:49;;;;;;;59.38;35.47;;;;;;;;;;5053037;28;20029;-56
2021/03/17 11:29:18;;;;;;;105.85;58.92;;;;;;;;;;5053062;28;20025;-55
2021/03/17 11:31:45;;;;;;;67.38;40.38;;;;;;;;;;5052915;28;20032;-55
2021/03/17 11:34:11;;;;;;;67.88;39.42;;;;;;;;;;5034974;28;20094;-53
2021/03/17 11:36:38;;;;;;;59.08;34.00;;;;;;;;;;5053072;28;20025;-55
2021/03/17 11:39:05;;;;;;;55.30;31.75;;;;;;;;;;5052839;28;20033;-53
2021/03/17 11:41:31;;;;;;;46.00;25.95;;;;;;;;;;5053070;28;20057;-54
2021/03/17 11:43:57;;;;;;;49.45;27.98;;;;;;;;;;5053029;28;20508;-52
2021/03/17 11:46:23;;;;;;;38.33;21.67;;;;;;;;;;5052956;28;20108;-54
2021/03/17 11:48:50;;;;;;;66.20;28.45;;;;;;;;;;5053018;28;20021;-55
2021/03/17 11:51:16;;;;;;;63.95;32.60;;;;;;;;;;5053065;28;20052;-56
2021/03/17 11:53:42;;;;;;;57.45;33.55;;;;;;;;;;5052969;28;20029;-55
2021/03/17 11:56:08;;;;;;;57.40;33.75;;;;;;;;;;5052990;28;20025;-52
2021/03/17 11:58:34;;;;;;;47.33;27.55;;;;;;;;;;5052933;28;20380;-56
2021/03/17 12:01:03;;;;;;;43.58;25.58;;;;;;;;;;5052986;28;20024;-52
2021/03/17 12:03:29;;;;;;;54.25;27.77;;;;;;;;;;5052751;28;20527;-53
2021/03/17 12:05:55;;;;;;;46.95;26.05;;;;;;;;;;5052809;28;20029;-54
2021/03/17 12:08:22;;;;;;;45.50;23.95;;;;;;;;;;5052490;28;20049;-53
2021/03/17 12:10:49;;;;;;;31.10;19.08;;;;;;;;;;5052596;28;20488;-53
2021/03/17 12:13:15;;;;;;;51.28;30.40;;;;;;;;;;5052611;28;20041;-56
2021/03/17 12:15:44;;;;;;;33.30;19.30;;;;;;;;;;5052178;28;20095;-55
2021/03/17 12:18:11;;;;;;;40.22;25.02;;;;;;;;;;5035332;28;20032;-54
2021/03/17 12:20:37;;;;;;;36.92;21.60;;;;;;;;;;5034816;28;20029;-54
2021/03/17 12:23:04;;;;;;;44.83;25.77;;;;;;;;;;5052507;28;20103;-55
2021/03/17 12:25:30;;;;;;;60.13;32.28;;;;;;;;;;5052490;28;20025;-56
2021/03/17 12:27:57;;;;;;;109.63;59.42;;;;;;;;;;5052646;28;20032;-56
2021/03/17 12:30:23;;;;;;;178.60;89.25;;;;;;;;;;5056081;28;20023;-54
2021/03/17 12:32:52;;;;;;;43.53;26.77;;;;;;;;;;5055494;28;20040;-48
2021/03/17 12:35:25;;;;;;;118.50;65.60;;;;;;;;;;5054230;28;20083;-56
2021/03/17 12:37:52;;;;;;;36.33;22.02;;;;;;;;;;5053329;28;20108;-56
2021/03/17 12:40:22;;;;;;;108.50;59.15;;;;;;;;;;5055337;28;20025;-54
2021/03/17 12:42:48;;;;;;;39.53;23.83;;;;;;;;;;5055506;28;20154;-55
2021/03/17 12:45:15;;;;;;;74.50;41.83;;;;;;;;;;5055239;28;20427;-52
2021/03/17 12:47:41;;;;;;;68.47;38.45;;;;;;;;;;5055563;28;20059;-54
2021/03/17 12:50:11;;;;;;;56.80;33.35;;;;;;;;;;5052651;28;20032;-54
2021/03/17 12:52:38;;;;;;;58.63;31.27;;;;;;;;;;5055374;28;20496;-51
2021/03/17 12:55:05;;;;;;;55.67;32.75;;;;;;;;;;5055081;28;20025;-56
2021/03/17 12:57:31;;;;;;;93.80;54.58;;;;;;;;;;5055142;28;20100;-50
2021/03/17 12:59:58;;;;;;;70.90;40.95;;;;;;;;;;5055021;28;20443;-48
2021/03/17 13:02:30;;;;;;;75.20;44.17;;;;;;;;;;5037093;28;20059;-50
2021/03/17 13:04:56;;;;;;;51.08;30.40;;;;;;;;;;5055157;28;20108;-53
2021/03/17 13:07:24;;;;;;;110.65;65.10;;;;;;;;;;5054819;28;20052;-54
2021/03/17 13:09:50;;;;;;;50.60;29.42;;;;;;;;;;5054557;28;20505;-53
2021/03/17 13:12:16;;;;;;;70.35;43.22;;;;;;;;;;5055161;28;20035;-51
2021/03/17 13:14:42;;;;;;;80.35;48.08;;;;;;;;;;5054701;28;20037;-53
2021/03/17 13:17:10;;;;;;;54.35;32.42;;;;;;;;;;5055051;28;20431;-55
2021/03/17 13:19:36;;;;;;;54.15;32.10;;;;;;;;;;5054859;28;20381;-51
2021/03/17 13:22:02;;;;;;;92.90;54.80;;;;;;;;;;5053329;28;20032;-54
2021/03/17 13:24:30;;;;;;;49.10;29.88;;;;;;;;;;5054681;28;20021;-57
2021/03/17 13:26:56;;;;;;;44.22;28.65;;;;;;;;;;5054659;28;20032;-56
2021/03/17 13:29:22;;;;;;;58.63;34.47;;;;;;;;;;5040845;28;20033;-53
2021/03/17 13:31:50;;;;;;;67.97;40.55;;;;;;;;;;5035023;28;20477;-50
2021/03/17 13:34:18;;;;;;;92.80;52.90;;;;;;;;;;5034966;28;20126;-53
2021/03/17 13:36:44;;;;;;;115.57;65.45;;;;;;;;;;5034941;28;20052;-56
2021/03/17 13:39:10;;;;;;;36.97;23.08;;;;;;;;;;5034363;28;20033;-55
2021/03/17 13:41:39;;;;;;;28.35;18.55;;;;;;;;;;5034813;28;20029;-56
2021/03/17 13:44:05;;;;;;;31.25;20.10;;;;;;;;;;5034800;28;20021;-54
2021/03/17 13:46:35;;;;;;;25.33;16.63;;;;;;;;;;5033913;28;20053;-52
2021/03/17 13:49:01;;;;;;;23.77;15.75;;;;;;;;;;5033128;28;20029;-55
2021/03/17 13:51:29;;;;;;;33.63;14.10;;;;;;;;;;5028223;28;20064;-55
2021/03/17 13:53:55;;;;;;;28.33;14.10;;;;;;;;;;5037051;28;20082;-54
2021/03/17 13:56:22;;;;;;;32.03;16.13;;;;;;;;;;5035790;28;20123;-49
2021/03/17 13:58:49;;;;;;;25.45;14.45;;;;;;;;;;5036737;28;20024;-55
2021/03/17 14:01:15;;;;;;;25.35;14.00;;;;;;;;;;5036813;28;20090;-54
2021/03/17 14:03:41;;;;;;;25.13;13.40;;;;;;;;;;5037078;28;20120;-54
2021/03/17 14:06:08;;;;;;;25.90;15.20;;;;;;;;;;5035803;28;20111;-54
2021/03/17 14:08:36;;;;;;;18.95;13.63;;;;;;;;;;5036633;28;20045;-55
2021/03/17 14:11:05;;;;;;;20.80;13.30;;;;;;;;;;5037186;28;20752;-53
2021/03/17 14:13:31;;;;;;;40.78;18.90;;;;;;;;;;5036888;28;20475;-50
2021/03/17 14:15:57;;;;;;;26.95;15.90;;;;;;;;;;5036629;28;20031;-55
2021/03/17 14:18:23;;;;;;;40.33;20.30;;;;;;;;;;5035904;28;20094;-53
2021/03/17 14:20:55;;;;;;;54.15;23.08;;;;;;;;;;5036646;28;20074;-54
2021/03/17 14:23:22;;;;;;;64.55;29.38;;;;;;;;;;5035703;28;20090;-54
2021/03/17 14:25:50;;;;;;;34.55;18.48;;;;;;;;;;5036446;28;20493;-49